sensor_id;sensor_type;location;lat;lon;timestamp;temperature;humidity
5930;DHT22;2990;48.746;9.236;2024-01-10T00:01:19;-4.70;1.00
5930;DHT22;2990;48.746;9.236;2024-01-10T00:03:46;-4.70;1.00
5930;DHT22;2990;48.746;9.236;2024-01-10T00:06:12;-4.70;1.00
5930;DHT22;2990;48.746;9.236;2024-01-10T00:08:37;-4.60;1.00
5930;DHT22;2990;48.746;9.236;2024-01-10T00:11:03;-4.70;1.00
5930;DHT22;2990;48.746;9.236;2024-01-10T00:13:30;-4.70;1.00
5930;DHT22;2990;48.746;9.236;2024-01-10T00:15:56;-4.70;1.00
5930;DHT22;2990;48.746;9.236;2024-01-10T00:18:24;-4.70;1.00
5930;DHT22;2990;48.746;9.236;2024-01-10T00:20:50;-4.70;1.00
5930;DHT22;2990;48.746;9.236;2024-01-10T00:23:15;-4.70;1.00
5930;DHT22;2990;48.746;9.236;2024-01-10T00:25:41;-4.70;1.00
5930;DHT22;2990;48.746;9.236;2024-01-10T00:28:06;-4.70;1.00
5930;DHT22;2990;48.746;9.236;2024-01-10T00:30:32;-4.80;1.00
5930;DHT22;2990;48.746;9.236;2024-01-10T00:32:58;-4.70;1.00
5930;DHT22;2990;48.746;9.236;2024-01-10T00:35:23;-4.70;1.00
5930;DHT22;2990;48.746;9.236;2024-01-10T00:37:49;-4.70;1.00
5930;DHT22;2990;48.746;9.236;2024-01-10T00:40:14;-4.80;1.00
5930;DHT22;2990;48.746;9.236;2024-01-10T00:42:40;-4.70;1.00
5930;DHT22;2990;48.746;9.236;2024-01-10T00:45:05;-4.80;1.00
5930;DHT22;2990;48.746;9.236;2024-01-10T00:47:31;-4.80;1.00
5930;DHT22;2990;48.746;9.236;2024-01-10T00:49:57;-4.90;1.00
5930;DHT22;2990;48.746;9.236;2024-01-10T00:52:22;-4.90;1.00
5930;DHT22;2990;48.746;9.236;2024-01-10T00:54:48;-4.90;1.00
5930;DHT22;2990;48.746;9.236;2024-01-10T00:57:13;-4.90;1.00
5930;DHT22;2990;48.746;9.236;2024-01-10T00:59:40;-4.90;1.00
5930;DHT22;2990;48.746;9.236;2024-01-10T01:02:06;-4.90;1.00
5930;DHT22;2990;48.746;9.236;2024-01-10T01:04:31;-4.90;1.00
5930;DHT22;2990;48.746;9.236;2024-01-10T01:06:57;-4.90;1.00
5930;DHT22;2990;48.746;9.236;2024-01-10T01:09:22;-4.90;1.00
5930;DHT22;2990;48.746;9.236;2024-01-10T01:11:48;-4.90;1.00
5930;DHT22;2990;48.746;9.236;2024-01-10T01:14:13;-4.90;1.00
5930;DHT22;2990;48.746;9.236;2024-01-10T01:16:39;-4.90;1.00
5930;DHT22;2990;48.746;9.236;2024-01-10T01:19:04;-4.90;1.00
5930;DHT22;2990;48.746;9.236;2024-01-10T01:21:30;-4.90;1.00
5930;DHT22;2990;48.746;9.236;2024-01-10T01:23:56;-4.90;1.00
5930;DHT22;2990;48.746;9.236;2024-01-10T01:26:21;-4.90;1.00
5930;DHT22;2990;48.746;9.236;2024-01-10T01:28:47;-4.90;1.00
5930;DHT22;2990;48.746;9.236;2024-01-10T01:31:12;-4.90;1.00
5930;DHT22;2990;48.746;9.236;2024-01-10T01:33:38;-4.80;1.00
5930;DHT22;2990;48.746;9.236;2024-01-10T01:36:05;-4.80;1.00
5930;DHT22;2990;48.746;9.236;2024-01-10T01:41:53;-4.80;1.00
5930;DHT22;2990;48.746;9.236;2024-01-10T01:44:18;-4.80;1.00
5930;DHT22;2990;48.746;9.236;2024-01-10T01:46:44;-4.80;1.00
5930;DHT22;2990;48.746;9.236;2024-01-10T01:49:11;-4.80;1.00
5930;DHT22;2990;48.746;9.236;2024-01-10T01:51:37;-4.80;1.00
5930;DHT22;2990;48.746;9.236;2024-01-10T01:54:06;-4.80;1.00
5930;DHT22;2990;48.746;9.236;2024-01-10T01:56:33;-4.80;1.00
5930;DHT22;2990;48.746;9.236;2024-01-10T01:59:00;-4.80;1.00
5930;DHT22;2990;48.746;9.236;2024-01-10T02:01:26;-4.80;1.00
5930;DHT22;2990;48.746;9.236;2024-01-10T02:03:51;-4.80;1.00
5930;DHT22;2990;48.746;9.236;2024-01-10T02:06:17;-4.80;1.00
5930;DHT22;2990;48.746;9.236;2024-01-10T02:08:43;-4.80;1.00
5930;DHT22;2990;48.746;9.236;2024-01-10T02:11:08;-4.90;1.00
5930;DHT22;2990;48.746;9.236;2024-01-10T02:13:34;-4.90;1.00
5930;DHT22;2990;48.746;9.236;2024-01-10T02:16:01;-4.90;1.00
5930;DHT22;2990;48.746;9.236;2024-01-10T02:18:26;-5.00;1.00
5930;DHT22;2990;48.746;9.236;2024-01-10T02:20:52;-5.00;1.00
5930;DHT22;2990;48.746;9.236;2024-01-10T02:23:18;-5.00;1.00
5930;DHT22;2990;48.746;9.236;2024-01-10T02:25:44;-5.00;1.00
5930;DHT22;2990;48.746;9.236;2024-01-10T02:28:10;-5.00;1.00
5930;DHT22;2990;48.746;9.236;2024-01-10T02:30:36;-5.00;1.00
5930;DHT22;2990;48.746;9.236;2024-01-10T02:33:01;-5.10;1.00
5930;DHT22;2990;48.746;9.236;2024-01-10T02:35:27;-5.10;1.00
5930;DHT22;2990;48.746;9.236;2024-01-10T02:37:53;-5.20;1.00
5930;DHT22;2990;48.746;9.236;2024-01-10T02:40:20;-5.20;1.00
5930;DHT22;2990;48.746;9.236;2024-01-10T02:42:45;-5.20;1.00
5930;DHT22;2990;48.746;9.236;2024-01-10T02:45:11;-5.30;1.00
5930;DHT22;2990;48.746;9.236;2024-01-10T02:47:36;-5.30;1.00
5930;DHT22;2990;48.746;9.236;2024-01-10T02:50:04;-5.30;1.00
5930;DHT22;2990;48.746;9.236;2024-01-10T02:52:30;-5.30;1.00
5930;DHT22;2990;48.746;9.236;2024-01-10T02:54:55;-5.30;1.00
5930;DHT22;2990;48.746;9.236;2024-01-10T03:00:44;-5.20;1.00
5930;DHT22;2990;48.746;9.236;2024-01-10T03:03:09;-5.20;1.00
5930;DHT22;2990;48.746;9.236;2024-01-10T03:05:35;-5.20;1.00
5930;DHT22;2990;48.746;9.236;2024-01-10T03:08:00;-5.10;1.00
5930;DHT22;2990;48.746;9.236;2024-01-10T03:10:27;-5.10;1.00
5930;DHT22;2990;48.746;9.236;2024-01-10T03:12:53;-5.10;1.00
5930;DHT22;2990;48.746;9.236;2024-01-10T03:15:18;-5.00;1.00
5930;DHT22;2990;48.746;9.236;2024-01-10T03:17:44;-5.00;1.00
5930;DHT22;2990;48.746;9.236;2024-01-10T03:20:10;-5.00;1.00
5930;DHT22;2990;48.746;9.236;2024-01-10T03:22:36;-5.00;1.00
5930;DHT22;2990;48.746;9.236;2024-01-10T03:25:02;-4.90;1.00
5930;DHT22;2990;48.746;9.236;2024-01-10T03:42:12;-4.90;1.00
5930;DHT22;2990;48.746;9.236;2024-01-10T03:44:37;-4.90;1.00
5930;DHT22;2990;48.746;9.236;2024-01-10T03:47:03;-4.90;1.00
5930;DHT22;2990;48.746;9.236;2024-01-10T03:49:29;-4.90;1.00
5930;DHT22;2990;48.746;9.236;2024-01-10T03:51:54;-4.80;1.00
5930;DHT22;2990;48.746;9.236;2024-01-10T03:54:20;-4.90;1.00
5930;DHT22;2990;48.746;9.236;2024-01-10T03:56:45;-4.90;1.00
5930;DHT22;2990;48.746;9.236;2024-01-10T03:59:11;-4.80;1.00
5930;DHT22;2990;48.746;9.236;2024-01-10T04:01:36;-4.90;1.00
5930;DHT22;2990;48.746;9.236;2024-01-10T04:04:04;-4.90;1.00
5930;DHT22;2990;48.746;9.236;2024-01-10T04:06:30;-4.90;1.00
5930;DHT22;2990;48.746;9.236;2024-01-10T04:08:55;-4.90;1.00
5930;DHT22;2990;48.746;9.236;2024-01-10T04:11:21;-4.90;1.00
5930;DHT22;2990;48.746;9.236;2024-01-10T04:13:46;-4.90;47.40
5930;DHT22;2990;48.746;9.236;2024-01-10T04:16:12;-4.80;99.90
5930;DHT22;2990;48.746;9.236;2024-01-10T04:18:38;-4.80;69.20
5930;DHT22;2990;48.746;9.236;2024-01-10T04:21:04;-4.80;71.50
5930;DHT22;2990;48.746;9.236;2024-01-10T04:23:29;-4.80;1.00
5930;DHT22;2990;48.746;9.236;2024-01-10T04:25:56;-4.80;25.10
5930;DHT22;2990;48.746;9.236;2024-01-10T04:28:21;-4.80;14.20
5930;DHT22;2990;48.746;9.236;2024-01-10T04:30:47;-4.70;62.80
5930;DHT22;2990;48.746;9.236;2024-01-10T04:33:13;-4.70;99.90
5930;DHT22;2990;48.746;9.236;2024-01-10T04:35:38;-4.80;60.60
5930;DHT22;2990;48.746;9.236;2024-01-10T04:38:04;-4.80;99.90
5930;DHT22;2990;48.746;9.236;2024-01-10T04:40:29;-4.70;99.90
5930;DHT22;2990;48.746;9.236;2024-01-10T04:42:55;-4.70;99.90
5930;DHT22;2990;48.746;9.236;2024-01-10T04:45:20;-4.70;99.90
5930;DHT22;2990;48.746;9.236;2024-01-10T04:47:46;-4.70;99.90
5930;DHT22;2990;48.746;9.236;2024-01-10T04:50:11;-4.70;99.90
5930;DHT22;2990;48.746;9.236;2024-01-10T04:52:37;-4.70;99.90
5930;DHT22;2990;48.746;9.236;2024-01-10T04:55:03;-4.70;99.90
5930;DHT22;2990;48.746;9.236;2024-01-10T04:57:31;-4.70;99.90
5930;DHT22;2990;48.746;9.236;2024-01-10T04:59:57;-4.70;99.90
5930;DHT22;2990;48.746;9.236;2024-01-10T05:02:23;-4.70;99.90
5930;DHT22;2990;48.746;9.236;2024-01-10T05:04:49;-4.70;99.90
5930;DHT22;2990;48.746;9.236;2024-01-10T05:07:14;-4.70;99.90
5930;DHT22;2990;48.746;9.236;2024-01-10T05:09:40;-4.70;99.90
5930;DHT22;2990;48.746;9.236;2024-01-10T05:12:06;-4.70;99.90
5930;DHT22;2990;48.746;9.236;2024-01-10T05:14:31;-4.80;99.90
5930;DHT22;2990;48.746;9.236;2024-01-10T05:16:57;-4.80;99.90
5930;DHT22;2990;48.746;9.236;2024-01-10T05:19:22;-4.80;99.90
5930;DHT22;2990;48.746;9.236;2024-01-10T05:21:48;-4.80;99.90
5930;DHT22;2990;48.746;9.236;2024-01-10T05:24:14;-4.90;99.90
5930;DHT22;2990;48.746;9.236;2024-01-10T05:26:39;-4.80;99.90
5930;DHT22;2990;48.746;9.236;2024-01-10T05:29:05;-4.90;99.90
5930;DHT22;2990;48.746;9.236;2024-01-10T05:31:30;-4.90;99.90
5930;DHT22;2990;48.746;9.236;2024-01-10T05:33:56;-5.00;99.90
5930;DHT22;2990;48.746;9.236;2024-01-10T05:36:22;-5.00;99.90
5930;DHT22;2990;48.746;9.236;2024-01-10T05:38:48;-5.00;1.00
5930;DHT22;2990;48.746;9.236;2024-01-10T05:41:14;-5.00;1.00
5930;DHT22;2990;48.746;9.236;2024-01-10T05:43:40;-5.00;99.90
5930;DHT22;2990;48.746;9.236;2024-01-10T05:46:05;-5.00;1.00
5930;DHT22;2990;48.746;9.236;2024-01-10T05:48:31;-5.10;1.00
5930;DHT22;2990;48.746;9.236;2024-01-10T05:50:57;-5.10;1.00
5930;DHT22;2990;48.746;9.236;2024-01-10T05:53:24;-5.10;1.00
5930;DHT22;2990;48.746;9.236;2024-01-10T05:55:50;-5.10;1.00
5930;DHT22;2990;48.746;9.236;2024-01-10T05:58:16;-5.20;1.00
5930;DHT22;2990;48.746;9.236;2024-01-10T06:00:42;-5.20;1.00
5930;DHT22;2990;48.746;9.236;2024-01-10T06:03:08;-5.20;1.00
5930;DHT22;2990;48.746;9.236;2024-01-10T06:05:34;-5.20;1.00
5930;DHT22;2990;48.746;9.236;2024-01-10T06:08:00;-5.10;1.00
5930;DHT22;2990;48.746;9.236;2024-01-10T06:10:25;-5.20;1.00
5930;DHT22;2990;48.746;9.236;2024-01-10T06:12:51;-5.10;1.00
5930;DHT22;2990;48.746;9.236;2024-01-10T06:15:16;-5.20;1.00
5930;DHT22;2990;48.746;9.236;2024-01-10T06:17:42;-5.20;1.00
5930;DHT22;2990;48.746;9.236;2024-01-10T06:20:08;-5.20;1.00
5930;DHT22;2990;48.746;9.236;2024-01-10T06:22:34;-5.30;1.00
5930;DHT22;2990;48.746;9.236;2024-01-10T06:24:59;-5.30;1.00
5930;DHT22;2990;48.746;9.236;2024-01-10T06:27:25;-5.30;1.00
5930;DHT22;2990;48.746;9.236;2024-01-10T06:29:50;-5.30;1.00
5930;DHT22;2990;48.746;9.236;2024-01-10T06:32:16;-5.30;1.00
5930;DHT22;2990;48.746;9.236;2024-01-10T06:34:42;-5.30;1.00
5930;DHT22;2990;48.746;9.236;2024-01-10T06:37:07;-5.40;1.00
5930;DHT22;2990;48.746;9.236;2024-01-10T06:39:33;-5.30;1.00
5930;DHT22;2990;48.746;9.236;2024-01-10T06:41:59;-5.40;1.00
5930;DHT22;2990;48.746;9.236;2024-01-10T06:44:24;-5.50;99.90
5930;DHT22;2990;48.746;9.236;2024-01-10T06:46:50;-5.50;99.90
5930;DHT22;2990;48.746;9.236;2024-01-10T06:49:16;-5.50;99.90
5930;DHT22;2990;48.746;9.236;2024-01-10T06:51:42;-5.50;99.90
5930;DHT22;2990;48.746;9.236;2024-01-10T06:54:07;-5.50;99.90
5930;DHT22;2990;48.746;9.236;2024-01-10T06:56:34;-5.40;99.90
5930;DHT22;2990;48.746;9.236;2024-01-10T06:59:00;-5.50;1.00
5930;DHT22;2990;48.746;9.236;2024-01-10T07:01:26;-5.50;1.00
5930;DHT22;2990;48.746;9.236;2024-01-10T07:03:55;-5.50;1.00
5930;DHT22;2990;48.746;9.236;2024-01-10T07:06:23;-5.50;1.00
5930;DHT22;2990;48.746;9.236;2024-01-10T07:08:49;-5.50;1.00
5930;DHT22;2990;48.746;9.236;2024-01-10T07:11:16;-5.60;1.00
5930;DHT22;2990;48.746;9.236;2024-01-10T07:13:42;-5.60;1.00
5930;DHT22;2990;48.746;9.236;2024-01-10T07:16:08;-5.60;1.00
5930;DHT22;2990;48.746;9.236;2024-01-10T07:18:34;-5.70;1.00
5930;DHT22;2990;48.746;9.236;2024-01-10T07:20:59;-5.70;1.00
5930;DHT22;2990;48.746;9.236;2024-01-10T07:23:25;-5.60;23.30
5930;DHT22;2990;48.746;9.236;2024-01-10T07:25:51;-5.60;99.90
5930;DHT22;2990;48.746;9.236;2024-01-10T07:28:17;-5.60;99.90
5930;DHT22;2990;48.746;9.236;2024-01-10T07:30:44;-5.60;99.90
5930;DHT22;2990;48.746;9.236;2024-01-10T07:33:10;-5.60;99.90
5930;DHT22;2990;48.746;9.236;2024-01-10T07:35:35;-5.60;99.90
5930;DHT22;2990;48.746;9.236;2024-01-10T07:38:01;-5.60;99.90
5930;DHT22;2990;48.746;9.236;2024-01-10T07:40:26;-5.60;1.00
5930;DHT22;2990;48.746;9.236;2024-01-10T07:42:52;-5.60;1.00
5930;DHT22;2990;48.746;9.236;2024-01-10T07:45:18;-5.50;1.00
5930;DHT22;2990;48.746;9.236;2024-01-10T07:47:43;-5.50;1.00
5930;DHT22;2990;48.746;9.236;2024-01-10T07:50:10;-5.40;1.00
5930;DHT22;2990;48.746;9.236;2024-01-10T07:52:39;-5.40;1.00
5930;DHT22;2990;48.746;9.236;2024-01-10T07:55:05;-5.30;1.00
5930;DHT22;2990;48.746;9.236;2024-01-10T07:57:32;-5.20;1.00
5930;DHT22;2990;48.746;9.236;2024-01-10T07:59:59;-5.20;1.00
5930;DHT22;2990;48.746;9.236;2024-01-10T08:02:25;-5.10;1.00
5930;DHT22;2990;48.746;9.236;2024-01-10T08:04:51;-5.00;99.90
5930;DHT22;2990;48.746;9.236;2024-01-10T08:07:17;-5.00;99.90
5930;DHT22;2990;48.746;9.236;2024-01-10T08:09:42;-4.90;99.90
5930;DHT22;2990;48.746;9.236;2024-01-10T08:12:08;-4.80;99.90
5930;DHT22;2990;48.746;9.236;2024-01-10T08:14:33;-4.80;1.00
5930;DHT22;2990;48.746;9.236;2024-01-10T08:16:59;-4.70;1.00
5930;DHT22;2990;48.746;9.236;2024-01-10T08:19:26;-4.70;1.00
5930;DHT22;2990;48.746;9.236;2024-01-10T08:21:55;-4.60;1.00
5930;DHT22;2990;48.746;9.236;2024-01-10T08:24:22;-4.50;1.00
5930;DHT22;2990;48.746;9.236;2024-01-10T08:26:48;-4.50;1.00
5930;DHT22;2990;48.746;9.236;2024-01-10T08:29:20;-4.40;1.00
5930;DHT22;2990;48.746;9.236;2024-01-10T08:31:47;-4.20;1.00
5930;DHT22;2990;48.746;9.236;2024-01-10T08:34:13;-4.10;99.90
5930;DHT22;2990;48.746;9.236;2024-01-10T08:36:38;-4.00;99.90
5930;DHT22;2990;48.746;9.236;2024-01-10T08:39:04;-3.80;56.90
5930;DHT22;2990;48.746;9.236;2024-01-10T08:41:30;-3.70;1.00
5930;DHT22;2990;48.746;9.236;2024-01-10T08:43:56;-3.60;1.00
5930;DHT22;2990;48.746;9.236;2024-01-10T08:46:22;-3.40;1.00
5930;DHT22;2990;48.746;9.236;2024-01-10T08:48:50;-3.30;1.00
5930;DHT22;2990;48.746;9.236;2024-01-10T08:51:15;-3.20;99.90
5930;DHT22;2990;48.746;9.236;2024-01-10T08:53:44;-3.10;99.90
5930;DHT22;2990;48.746;9.236;2024-01-10T08:56:10;-3.00;97.80
5930;DHT22;2990;48.746;9.236;2024-01-10T08:58:36;-3.00;3.70
5930;DHT22;2990;48.746;9.236;2024-01-10T09:01:02;-2.80;1.00
5930;DHT22;2990;48.746;9.236;2024-01-10T09:03:29;-2.70;1.00
5930;DHT22;2990;48.746;9.236;2024-01-10T09:05:55;-2.60;1.00
5930;DHT22;2990;48.746;9.236;2024-01-10T09:08:21;-2.50;1.00
5930;DHT22;2990;48.746;9.236;2024-01-10T09:10:46;-2.30;1.00
5930;DHT22;2990;48.746;9.236;2024-01-10T09:13:14;-2.20;1.00
5930;DHT22;2990;48.746;9.236;2024-01-10T09:15:40;-2.10;1.00
5930;DHT22;2990;48.746;9.236;2024-01-10T09:18:05;-1.90;1.00
5930;DHT22;2990;48.746;9.236;2024-01-10T09:20:31;-1.80;1.00
5930;DHT22;2990;48.746;9.236;2024-01-10T09:22:57;-1.80;1.00
5930;DHT22;2990;48.746;9.236;2024-01-10T09:25:22;-1.70;1.00
5930;DHT22;2990;48.746;9.236;2024-01-10T09:27:48;-1.60;1.00
5930;DHT22;2990;48.746;9.236;2024-01-10T09:30:13;-1.50;1.00
5930;DHT22;2990;48.746;9.236;2024-01-10T09:32:41;-1.50;1.00
5930;DHT22;2990;48.746;9.236;2024-01-10T09:35:07;-1.50;1.00
5930;DHT22;2990;48.746;9.236;2024-01-10T09:37:33;-1.50;1.00
5930;DHT22;2990;48.746;9.236;2024-01-10T09:39:59;-1.40;1.00
5930;DHT22;2990;48.746;9.236;2024-01-10T09:42:25;-1.40;1.00
5930;DHT22;2990;48.746;9.236;2024-01-10T09:44:51;-1.40;1.00
5930;DHT22;2990;48.746;9.236;2024-01-10T09:47:19;-1.30;1.00
5930;DHT22;2990;48.746;9.236;2024-01-10T09:49:46;-1.20;1.00
5930;DHT22;2990;48.746;9.236;2024-01-10T09:52:19;-1.10;1.00
5930;DHT22;2990;48.746;9.236;2024-01-10T09:54:46;-1.00;1.00
5930;DHT22;2990;48.746;9.236;2024-01-10T10:03:36;-0.90;1.00
5930;DHT22;2990;48.746;9.236;2024-01-10T10:06:03;-0.90;1.00
5930;DHT22;2990;48.746;9.236;2024-01-10T10:08:29;-0.90;1.00
5930;DHT22;2990;48.746;9.236;2024-01-10T10:10:55;-0.90;1.00
5930;DHT22;2990;48.746;9.236;2024-01-10T10:13:28;-0.70;1.00
5930;DHT22;2990;48.746;9.236;2024-01-10T10:16:01;-0.70;1.00
5930;DHT22;2990;48.746;9.236;2024-01-10T10:18:31;-0.50;1.00
5930;DHT22;2990;48.746;9.236;2024-01-10T10:23:33;-0.50;1.00
5930;DHT22;2990;48.746;9.236;2024-01-10T10:25:58;-0.40;1.00
5930;DHT22;2990;48.746;9.236;2024-01-10T10:28:29;-0.30;1.00
5930;DHT22;2990;48.746;9.236;2024-01-10T10:30:56;-0.40;1.00
5930;DHT22;2990;48.746;9.236;2024-01-10T10:33:22;-0.40;1.00
5930;DHT22;2990;48.746;9.236;2024-01-10T10:35:49;-0.30;1.00
5930;DHT22;2990;48.746;9.236;2024-01-10T10:38:15;-0.20;1.00
5930;DHT22;2990;48.746;9.236;2024-01-10T10:40:41;-0.10;1.00
5930;DHT22;2990;48.746;9.236;2024-01-10T10:43:12;0.10;1.00
5930;DHT22;2990;48.746;9.236;2024-01-10T10:45:41;0.10;1.00
5930;DHT22;2990;48.746;9.236;2024-01-10T10:48:09;0.20;1.00
5930;DHT22;2990;48.746;9.236;2024-01-10T10:50:35;0.30;1.00
5930;DHT22;2990;48.746;9.236;2024-01-10T10:53:03;0.20;1.00
5930;DHT22;2990;48.746;9.236;2024-01-10T10:55:29;0.20;1.00
5930;DHT22;2990;48.746;9.236;2024-01-10T10:57:55;0.10;1.00
5930;DHT22;2990;48.746;9.236;2024-01-10T11:00:22;0.20;1.00
5930;DHT22;2990;48.746;9.236;2024-01-10T11:02:56;0.20;1.00
5930;DHT22;2990;48.746;9.236;2024-01-10T11:05:23;0.30;1.00
5930;DHT22;2990;48.746;9.236;2024-01-10T11:07:49;0.10;1.00
5930;DHT22;2990;48.746;9.236;2024-01-10T11:10:24;-0.10;1.00
5930;DHT22;2990;48.746;9.236;2024-01-10T11:13:00;0.10;1.00
5930;DHT22;2990;48.746;9.236;2024-01-10T11:24:08;0.30;1.00
5930;DHT22;2990;48.746;9.236;2024-01-10T11:26:37;0.30;1.00
5930;DHT22;2990;48.746;9.236;2024-01-10T11:29:04;0.40;1.00
5930;DHT22;2990;48.746;9.236;2024-01-10T11:31:31;0.30;1.00
5930;DHT22;2990;48.746;9.236;2024-01-10T11:33:58;0.30;1.00
5930;DHT22;2990;48.746;9.236;2024-01-10T11:36:25;0.50;1.00
5930;DHT22;2990;48.746;9.236;2024-01-10T11:46:41;0.70;1.00
5930;DHT22;2990;48.746;9.236;2024-01-10T11:49:08;0.70;1.00
5930;DHT22;2990;48.746;9.236;2024-01-10T11:51:35;0.70;1.00
5930;DHT22;2990;48.746;9.236;2024-01-10T11:54:01;0.60;1.00
5930;DHT22;2990;48.746;9.236;2024-01-10T11:56:38;0.60;1.00
5930;DHT22;2990;48.746;9.236;2024-01-10T11:59:09;0.60;1.00
5930;DHT22;2990;48.746;9.236;2024-01-10T12:01:37;0.60;1.00
5930;DHT22;2990;48.746;9.236;2024-01-10T12:04:03;0.70;1.00
5930;DHT22;2990;48.746;9.236;2024-01-10T12:06:31;0.70;1.00
5930;DHT22;2990;48.746;9.236;2024-01-10T12:08:57;0.80;1.00
5930;DHT22;2990;48.746;9.236;2024-01-10T12:11:23;0.80;1.00
5930;DHT22;2990;48.746;9.236;2024-01-10T12:13:49;0.70;1.00
5930;DHT22;2990;48.746;9.236;2024-01-10T12:16:15;0.70;1.00
5930;DHT22;2990;48.746;9.236;2024-01-10T12:18:42;0.70;1.00
5930;DHT22;2990;48.746;9.236;2024-01-10T12:21:07;0.70;1.00
5930;DHT22;2990;48.746;9.236;2024-01-10T12:23:38;0.70;1.00
5930;DHT22;2990;48.746;9.236;2024-01-10T12:26:10;0.60;1.00
5930;DHT22;2990;48.746;9.236;2024-01-10T12:28:39;0.60;1.00
5930;DHT22;2990;48.746;9.236;2024-01-10T12:31:06;0.60;1.00
5930;DHT22;2990;48.746;9.236;2024-01-10T12:33:37;0.70;1.00
5930;DHT22;2990;48.746;9.236;2024-01-10T12:36:09;0.70;1.00
5930;DHT22;2990;48.746;9.236;2024-01-10T12:38:36;0.70;1.00
5930;DHT22;2990;48.746;9.236;2024-01-10T12:41:03;0.70;1.00
5930;DHT22;2990;48.746;9.236;2024-01-10T12:43:29;0.70;1.00
5930;DHT22;2990;48.746;9.236;2024-01-10T12:46:08;0.70;1.00
5930;DHT22;2990;48.746;9.236;2024-01-10T12:48:40;0.70;1.00
5930;DHT22;2990;48.746;9.236;2024-01-10T12:51:12;0.70;1.00
5930;DHT22;2990;48.746;9.236;2024-01-10T12:53:39;0.70;1.00
5930;DHT22;2990;48.746;9.236;2024-01-10T12:56:06;0.70;1.00
5930;DHT22;2990;48.746;9.236;2024-01-10T12:58:32;0.70;1.00
5930;DHT22;2990;48.746;9.236;2024-01-10T13:00:58;0.60;1.00
5930;DHT22;2990;48.746;9.236;2024-01-10T13:03:24;0.60;1.00
5930;DHT22;2990;48.746;9.236;2024-01-10T13:05:53;0.50;1.00
5930;DHT22;2990;48.746;9.236;2024-01-10T13:08:19;0.60;1.00
5930;DHT22;2990;48.746;9.236;2024-01-10T13:10:45;0.60;1.00
5930;DHT22;2990;48.746;9.236;2024-01-10T13:13:12;0.60;1.00
5930;DHT22;2990;48.746;9.236;2024-01-10T13:15:38;0.50;1.00
5930;DHT22;2990;48.746;9.236;2024-01-10T13:18:04;0.50;1.00
5930;DHT22;2990;48.746;9.236;2024-01-10T13:20:30;0.50;1.00
5930;DHT22;2990;48.746;9.236;2024-01-10T13:22:55;0.50;1.00
5930;DHT22;2990;48.746;9.236;2024-01-10T13:25:21;0.50;1.00
5930;DHT22;2990;48.746;9.236;2024-01-10T13:27:50;0.50;1.00
5930;DHT22;2990;48.746;9.236;2024-01-10T13:30:16;0.50;1.00
5930;DHT22;2990;48.746;9.236;2024-01-10T13:32:43;0.40;1.00
5930;DHT22;2990;48.746;9.236;2024-01-10T13:35:08;0.30;1.00
5930;DHT22;2990;48.746;9.236;2024-01-10T13:37:34;0.30;1.00
5930;DHT22;2990;48.746;9.236;2024-01-10T13:40:00;0.30;1.00
5930;DHT22;2990;48.746;9.236;2024-01-10T13:42:26;0.30;1.00
5930;DHT22;2990;48.746;9.236;2024-01-10T13:44:51;0.20;1.00
5930;DHT22;2990;48.746;9.236;2024-01-10T13:47:20;0.30;1.00
5930;DHT22;2990;48.746;9.236;2024-01-10T13:49:49;0.40;1.00
5930;DHT22;2990;48.746;9.236;2024-01-10T13:52:14;0.30;1.00
5930;DHT22;2990;48.746;9.236;2024-01-10T13:54:40;0.30;1.00
5930;DHT22;2990;48.746;9.236;2024-01-10T13:57:06;0.30;1.00
5930;DHT22;2990;48.746;9.236;2024-01-10T13:59:31;0.30;1.00
5930;DHT22;2990;48.746;9.236;2024-01-10T14:01:57;0.30;1.00
5930;DHT22;2990;48.746;9.236;2024-01-10T14:04:24;0.40;1.00
5930;DHT22;2990;48.746;9.236;2024-01-10T14:06:50;0.40;1.00
5930;DHT22;2990;48.746;9.236;2024-01-10T14:09:16;0.40;1.00
5930;DHT22;2990;48.746;9.236;2024-01-10T14:11:46;0.40;1.00
5930;DHT22;2990;48.746;9.236;2024-01-10T14:14:14;0.40;1.00
5930;DHT22;2990;48.746;9.236;2024-01-10T14:16:39;0.40;1.00
5930;DHT22;2990;48.746;9.236;2024-01-10T14:19:06;0.40;1.00
5930;DHT22;2990;48.746;9.236;2024-01-10T14:21:32;0.40;1.00
5930;DHT22;2990;48.746;9.236;2024-01-10T14:23:57;0.40;1.00
5930;DHT22;2990;48.746;9.236;2024-01-10T14:26:23;0.30;1.00
5930;DHT22;2990;48.746;9.236;2024-01-10T14:28:49;0.30;1.00
5930;DHT22;2990;48.746;9.236;2024-01-10T14:31:18;0.20;1.00
5930;DHT22;2990;48.746;9.236;2024-01-10T14:33:44;0.10;1.00
5930;DHT22;2990;48.746;9.236;2024-01-10T14:36:10;0.00;1.00
5930;DHT22;2990;48.746;9.236;2024-01-10T14:38:35;-0.10;1.00
5930;DHT22;2990;48.746;9.236;2024-01-10T14:41:01;-0.10;1.00
5930;DHT22;2990;48.746;9.236;2024-01-10T14:43:26;-0.10;1.00
5930;DHT22;2990;48.746;9.236;2024-01-10T14:45:52;-0.20;1.00
5930;DHT22;2990;48.746;9.236;2024-01-10T14:48:17;-0.30;1.00
5930;DHT22;2990;48.746;9.236;2024-01-10T14:50:43;-0.30;1.00
5930;DHT22;2990;48.746;9.236;2024-01-10T14:53:09;-0.30;1.00
5930;DHT22;2990;48.746;9.236;2024-01-10T14:55:34;-0.30;1.00
5930;DHT22;2990;48.746;9.236;2024-01-10T14:58:00;-0.40;1.00
5930;DHT22;2990;48.746;9.236;2024-01-10T15:00:25;-0.30;1.00
5930;DHT22;2990;48.746;9.236;2024-01-10T15:02:51;-0.30;1.00
5930;DHT22;2990;48.746;9.236;2024-01-10T15:05:17;-0.30;1.00
5930;DHT22;2990;48.746;9.236;2024-01-10T15:07:43;-0.40;1.00
5930;DHT22;2990;48.746;9.236;2024-01-10T15:10:09;-0.50;1.00
5930;DHT22;2990;48.746;9.236;2024-01-10T15:12:34;-0.50;1.00
5930;DHT22;2990;48.746;9.236;2024-01-10T15:15:00;-0.50;1.00
5930;DHT22;2990;48.746;9.236;2024-01-10T15:17:26;-0.50;1.00
5930;DHT22;2990;48.746;9.236;2024-01-10T15:19:52;-0.60;1.00
5930;DHT22;2990;48.746;9.236;2024-01-10T15:22:18;-0.70;1.00
5930;DHT22;2990;48.746;9.236;2024-01-10T15:24:44;-0.70;1.00
5930;DHT22;2990;48.746;9.236;2024-01-10T15:27:10;-0.60;1.00
5930;DHT22;2990;48.746;9.236;2024-01-10T15:29:39;-0.70;1.00
5930;DHT22;2990;48.746;9.236;2024-01-10T15:32:05;-0.60;1.00
5930;DHT22;2990;48.746;9.236;2024-01-10T15:34:31;-0.70;1.00
5930;DHT22;2990;48.746;9.236;2024-01-10T15:36:56;-0.70;1.00
5930;DHT22;2990;48.746;9.236;2024-01-10T15:39:22;-0.80;1.00
5930;DHT22;2990;48.746;9.236;2024-01-10T15:41:50;-0.80;1.00
5930;DHT22;2990;48.746;9.236;2024-01-10T15:44:19;-0.90;1.00
5930;DHT22;2990;48.746;9.236;2024-01-10T15:46:45;-1.00;1.00
5930;DHT22;2990;48.746;9.236;2024-01-10T15:49:11;-1.00;1.00
5930;DHT22;2990;48.746;9.236;2024-01-10T15:51:37;-1.10;1.00
5930;DHT22;2990;48.746;9.236;2024-01-10T15:54:03;-1.10;1.00
5930;DHT22;2990;48.746;9.236;2024-01-10T15:56:28;-1.10;1.00
5930;DHT22;2990;48.746;9.236;2024-01-10T15:58:55;-1.10;1.00
5930;DHT22;2990;48.746;9.236;2024-01-10T16:01:23;-1.10;1.00
5930;DHT22;2990;48.746;9.236;2024-01-10T16:03:49;-1.10;1.00
5930;DHT22;2990;48.746;9.236;2024-01-10T16:06:15;-1.10;1.00
5930;DHT22;2990;48.746;9.236;2024-01-10T16:08:42;-1.20;1.00
5930;DHT22;2990;48.746;9.236;2024-01-10T16:11:08;-1.20;1.00
5930;DHT22;2990;48.746;9.236;2024-01-10T16:13:34;-1.30;26.30
5930;DHT22;2990;48.746;9.236;2024-01-10T16:15:59;-1.40;89.40
5930;DHT22;2990;48.746;9.236;2024-01-10T16:18:25;-1.40;99.90
5930;DHT22;2990;48.746;9.236;2024-01-10T16:20:50;-1.50;99.90
5930;DHT22;2990;48.746;9.236;2024-01-10T16:23:17;-1.60;99.90
5930;DHT22;2990;48.746;9.236;2024-01-10T16:25:43;-1.60;99.90
5930;DHT22;2990;48.746;9.236;2024-01-10T16:28:08;-1.60;99.90
5930;DHT22;2990;48.746;9.236;2024-01-10T16:30:34;-1.70;99.90
5930;DHT22;2990;48.746;9.236;2024-01-10T16:32:59;-1.70;1.00
5930;DHT22;2990;48.746;9.236;2024-01-10T16:35:25;-1.70;1.00
5930;DHT22;2990;48.746;9.236;2024-01-10T16:37:50;-1.70;1.00
5930;DHT22;2990;48.746;9.236;2024-01-10T16:40:16;-1.80;1.00
5930;DHT22;2990;48.746;9.236;2024-01-10T16:42:43;-1.80;1.00
5930;DHT22;2990;48.746;9.236;2024-01-10T16:45:09;-1.80;1.00
5930;DHT22;2990;48.746;9.236;2024-01-10T16:47:35;-1.80;1.00
5930;DHT22;2990;48.746;9.236;2024-01-10T16:50:22;-1.80;1.00
5930;DHT22;2990;48.746;9.236;2024-01-10T16:52:47;-1.80;1.00
5930;DHT22;2990;48.746;9.236;2024-01-10T16:55:14;-1.70;1.00
5930;DHT22;2990;48.746;9.236;2024-01-10T16:57:40;-1.70;99.90
5930;DHT22;2990;48.746;9.236;2024-01-10T17:00:06;-1.60;99.90